WEATHER DATA

YESTERDAY
Time Temp. Dewp. Hum. Wind dir Wind speed Wind gust Bar. 1h Prec. 24h Prec.
00:08 16.7 12.7 77 270 0.3 0.8 1010.5 0.0000 0.0000
00:18 16.6 12.6 77 270 0.3 0.8 1010.7 0.0000 0.0000
00:29 16.7 12.7 77 270 0.3 0.8 1010.7 0.0000 0.0000
00:41 16.6 12.6 77 270 0.3 0.8 1010.8 0.0000 0.0000
00:52 16.6 12.6 77 270 0.3 0.8 1011 0.0000 0.0000
01:02 16.5 12.5 77 270 0.3 0.8 1011.1 0.0000 0.0000
01:12 16.5 12.5 77 270 0.3 0.8 1010.8 0.0000 0.0000
01:22 16.5 12.5 77 270 0.3 0.8 1011 0.0000 0.0000
01:32 16.5 12.5 77 270 0.3 0.8 1010.8 0.0000 0.0000
01:42 16.4 12.4 77 270 0.3 0.8 1010.7 0.0000 0.0000
01:51 16.3 12.3 77 270 0.3 0.8 1010.8 0.0000 0.0000
02:02 16.2 12.2 77 270 0.3 0.8 1010.8 0.0000 0.0000
02:12 16.2 12.2 77 270 0.3 0.8 1011 0.0000 0.0000
02:22 16.2 12.2 77 270 0.3 0.8 1011 0.0000 0.0000
02:32 16.2 12.2 77 270 0.3 0.8 1011 0.0000 0.0000
02:42 16.2 12.2 77 270 0.3 0.8 1011.2 0.0000 0.0000
02:52 16.2 12.2 77 270 0.3 0.8 1011 0.0000 0.0000
03:02 16.2 12.2 77 270 0.3 0.8 1011.1 0.0000 0.0000
03:12 16.2 12.4 78 270 0.3 0.8 1011.2 0.0000 0.0000
03:22 16.1 12.3 78 270 0.3 0.8 1011.1 0.0000 0.0000
03:32 16.1 12.3 78 270 0.3 0.8 1011.1 0.0000 0.0000
03:43 16.1 12.3 78 270 0.3 0.8 1011.1 0.0000 0.0000
03:52 16 12.2 78 270 0.3 0.8 1011 0.0000 0.0000
04:02 16.1 12.3 78 270 0.3 0.8 1011.1 0.0000 0.0000
04:12 16 12.2 78 270 0.3 0.8 1011.1 0.0000 0.0000
04:23 16 12.2 78 270 0.3 0.8 1011.2 0.0000 0.0000
04:32 15.9 12.1 78 270 0.3 0.8 1011.2 0.0000 0.0000
04:42 15.8 12 78 270 0.3 0.8 1011.2 0.0000 0.0000
04:53 15.8 12 78 270 0.3 0.8 1011.2 0.0000 0.0000
05:03 15.8 12 78 270 0.3 0.8 1011.2 0.0000 0.0000
05:12 15.7 12.1 79 270 0.3 0.8 1011.2 0.0000 0.0000
05:22 15.7 11.9 78 270 0.3 0.8 1011.2 0.0000 0.0000
05:42 15.6 12 79 270 0.3 0.8 1011.5 0.0000 0.0000
05:52 15.5 11.9 79 270 0.3 0.8 1011.5 0.0000 0.0000
06:03 15.4 11.8 79 270 0.3 0.8 1011.6 0.0000 0.0000
06:13 15.4 11.8 79 270 0.3 0.8 1011.7 0.0000 0.0000
06:33 15.2 11.8 80 270 0.3 0.8 1011.8 0.0000 0.0000
06:43 15.2 11.8 80 270 0.3 0.8 1011.8 0.0000 0.0000
06:53 15.3 11.9 80 270 0.3 0.8 1012 0.0000 0.0000
07:02 15.4 12 80 270 0.3 0.8 1012.2 0.0000 0.0000
07:13 15.5 12.1 80 270 0.3 0.8 1012.3 0.0000 0.0000
07:23 15.5 12.1 80 270 0.3 0.8 1012.3 0.0000 0.0000
07:33 15.5 12.1 80 270 0.3 0.8 1012.7 0.0000 0.0000
07:43 15.6 12.2 80 270 0.3 0.8 1012.7 0.0000 0.0000
07:53 15.7 12.3 80 270 0.3 0.8 1012.8 0.0000 0.0000
08:13 15.8 12.4 80 270 0.3 0.8 1013 0.0000 0.0000
08:23 15.9 12.5 80 270 0.3 0.8 1013.2 0.0000 0.0000
08:33 16 12.6 80 270 0.3 0.8 1013.2 0.0000 0.0000
08:43 16.1 12.7 80 270 0.3 0.8 1013.2 0.0000 0.0000
08:54 16.1 12.7 80 270 0.3 0.8 1013.3 0.0000 0.0000
09:03 16.2 12.7 80 270 0.3 0.8 1013.4 0.0000 0.0000
09:13 16.3 12.8 80 270 0.3 0.8 1013.5 0.0000 0.0000
09:23 16.5 13 80 270 0.3 0.8 1013.5 0.0000 0.0000
09:33 16.6 13.1 80 270 0.3 0.8 1013.7 0.0000 0.0000
09:43 16.9 13.2 79 270 0.3 0.8 1013.7 0.0000 0.0000
09:53 17.3 13.6 79 270 0.3 0.8 1013.7 0.0000 0.0000
10:04 17.6 13.7 78 270 0.3 0.8 1013.7 0.0000 0.0000
10:23 18.3 14.2 77 270 0.3 0.8 1013.8 0.0000 0.0000
10:33 18.5 14.2 76 270 0.3 0.8 1013.9 0.0000 0.0000
10:44 18.8 14.5 76 270 0.3 0.8 1013.8 0.0000 0.0000
10:53 19 14.5 75 270 0.3 0.8 1013.9 0.0000 0.0000
11:03 19.1 14.6 75 270 0.3 0.8 1013.9 0.0000 0.0000
11:14 19.3 14.6 74 270 0.3 0.8 1014 0.0000 0.0000
11:24 19.4 14.7 74 270 0.3 0.8 1014.1 0.0000 0.0000
11:33 19.4 14.4 73 270 0.3 0.8 1014.2 0.0000 0.0000
11:44 19.5 14.5 73 270 0.3 0.8 1014.3 0.0000 0.0000
11:54 19.6 14.4 72 270 0.3 0.8 1014.3 0.0000 0.0000
12:04 19.8 14.8 73 270 0.3 0.8 1014.3 0.0000 0.0000
12:13 20.1 15.1 73 270 0.3 0.8 1014.4 0.0000 0.0000
12:24 20.6 15.2 71 270 0.3 0.8 1014.3 0.1010 0.1000
12:34 21.2 15.5 70 270 0.3 0.8 1014.2 0.1010 0.1000
12:44 21.6 15.4 68 270 0.3 0.8 1014.4 0.1010 0.1000
12:54 21.9 15.3 66 270 0.3 0.8 1014.4 0.1010 0.1000
13:04 22.3 15.4 65 270 0.3 0.8 1014.4 0.1010 0.1000
13:14 22.4 15 63 270 0.3 0.8 1014.6 0.1010 0.1000
13:24 22.3 13.6 58 270 0.3 0.8 1014.6 0.0000 0.1000
13:34 22.3 14.2 60 270 0.3 0.8 1014.6 0.0000 0.1000
13:44 22.3 13.9 59 270 0.3 0.8 1014.7 0.0000 0.1000
13:54 22.1 13.5 58 270 0.3 0.8 1014.8 0.0000 0.1000
14:05 21.8 13.4 59 270 0.3 0.8 1014.8 0.0000 0.1000
14:14 21.5 13.4 60 270 0.3 0.8 1014.7 0.0000 0.1000
14:24 21.2 13.4 61 270 0.3 0.8 1014.9 0.0000 0.1000
14:34 21 13.2 61 270 0.3 0.8 1014.8 0.0000 0.1000
14:45 20.9 13.4 62 270 0.3 0.8 1014.8 0.0000 0.1000
14:54 20.8 13.5 63 270 0.3 0.8 1014.7 0.0000 0.1000
15:04 20.9 13.8 64 270 0.3 0.8 1014.6 0.0000 0.1000
15:15 21.1 13.8 63 270 0.3 0.8 1014.6 0.0000 0.1000
15:25 21.2 14.1 64 270 0.3 0.8 1014.4 0.0000 0.1000
15:34 21.4 14.1 63 270 0.3 0.8 1014.3 0.0000 0.1000
15:44 21.8 14.5 63 270 0.3 0.8 1014.1 0.0000 0.1000
15:55 22.1 14.5 62 270 0.3 0.8 1014 0.0000 0.1000
16:04 22.3 14.2 60 270 0.3 0.8 1013.8 0.0000 0.1000
16:14 22.5 13.6 57 270 0.3 0.8 1013.7 0.0000 0.1000
16:25 22.7 13.8 57 270 0.3 0.8 1013.6 0.0000 0.1000
16:44 23 14 57 270 0.3 0.8 1013.8 0.0000 0.1000
16:55 22.8 13.8 57 270 0.3 0.8 1013.8 0.0000 0.1000
17:05 22.6 13.7 57 270 0.3 0.8 1013.9 0.0000 0.1000
17:24 22.4 13.7 58 270 0.3 0.8 1013.8 0.0000 0.1000
17:35 22.4 14 59 270 0.3 0.8 1013.8 0.0000 0.1000
17:45 22.5 14.1 59 270 0.3 0.8 1013.8 0.0000 0.1000
17:55 22.5 14.1 59 270 0.3 0.8 1013.7 0.0000 0.1000
18:05 22.6 13.9 58 270 0.3 0.8 1013.7 0.0000 0.1000
18:15 22.7 13.8 57 270 0.3 0.8 1013.6 0.0000 0.1000
18:25 22.8 13.3 55 270 0.3 0.8 1013.6 0.0000 0.1000
18:35 22.7 13.5 56 270 0.3 0.8 1013.6 0.0000 0.1000
18:45 22.6 13.4 56 270 0.3 0.8 1013.7 0.0000 0.1000
18:55 22.4 13.2 56 270 0.3 0.8 1013.7 0.0000 0.1000
19:05 22.2 13.3 57 270 0.3 0.8 1013.7 0.0000 0.1000
19:15 22.1 13.2 57 270 0.3 0.8 1013.7 0.0000 0.1000
19:25 22 13.4 58 270 0.3 0.8 1014 0.0000 0.1000
19:35 21.8 13.2 58 270 0.3 0.8 1014 0.0000 0.1000
19:45 21.7 12.8 57 270 0.3 0.8 1013.8 0.0000 0.1000
19:56 21.6 13 58 270 0.3 0.8 1013.9 0.0000 0.1000
20:05 21.5 12.9 58 270 0.3 0.8 1013.9 0.0000 0.1000
20:15 21.4 12.5 57 270 0.3 0.8 1014 0.0000 0.1000
20:26 21.3 12.4 57 270 0.3 0.8 1013.9 0.0000 0.1000
20:36 21.2 12.4 57 270 0.3 0.8 1013.9 0.0000 0.1000
20:45 21.1 12.3 57 270 0.3 0.8 1014 0.0000 0.1000
20:55 20.9 12.3 58 270 0.3 0.8 1014 0.0000 0.1000
21:06 20.8 12.5 59 270 0.3 0.8 1014 0.0000 0.1000
21:16 20.6 12.1 58 270 0.3 0.8 1014.1 0.0000 0.1000
21:25 20.5 11.7 57 270 0.3 0.8 1014.2 0.0000 0.1000
21:36 20.4 11.6 57 270 0.3 0.8 1014.4 0.0000 0.1000
21:46 20.3 11.5 57 270 0.3 0.8 1014.4 0.0000 0.1000
21:56 20.1 11.3 57 270 0.3 0.8 1014.5 0.0000 0.1000
22:06 20 11.2 57 270 0.3 0.8 1014.7 0.0000 0.1000
22:16 20 11 56 270 0.3 0.8 1014.7 0.0000 0.1000
22:26 19.8 11 57 270 0.3 0.8 1014.8 0.0000 0.1000
22:35 19.7 10.7 56 270 0.3 0.8 1014.8 0.0000 0.1000
22:46 19.6 10.6 56 270 0.3 0.8 1014.6 0.0000 0.1000
22:56 19.5 10.8 57 270 0.3 0.8 1014.7 0.0000 0.1000
23:06 19.4 10.4 56 270 0.3 0.8 1014.8 0.0000 0.1000
23:16 19.3 10.6 57 270 0.3 0.8 1014.7 0.0000 0.1000
23:26 19.2 10.5 57 270 0.3 0.8 1015 0.0000 0.1000
23:36 19.1 10.4 57 270 0.3 0.8 1015.1 0.0000 0.1000
23:46 19 10.3 57 270 0.3 0.8 1015 0.0000 0.1000
23:56 18.9 10.5 58 270 0.3 0.8 1015 0.0000 0.1000

DAY STATISTIC

2018-05-23
TEMPERATURE
AVERAGE
19.0
HIGH
23.0
16:44
LOW
15.2
06:33
PRESSURE
AVERAGE
1013.2
HIGH
1015.1
23:36
LOW
1010.5
00:08
DEWPOINT
AVERAGE
12.9
HIGH
15.5
12:34
LOW
10.3
23:46
HUMIDITY
AVERAGE
69
HIGH
80
06:33
LOW
55
18:25
WIND SPEED
AVERAGE
0.3
HIGH
0.3
00:08
WIND GUST
AVERAGE
0.8
HIGH
0.8
00:08
WIND DIRECTION
PREVAILING
W
100%
N
0.0
NE
0.0
E
0.0
SE
0.0
S
0.0
SW
0.0
W
100.0
NW
0.0
PRECIPITATION
RAIN HOUR
0.1
RAIN DAY
0.1
TEMPERATURE (°C)
LOW
15.2
HIGH
23.0
AVERAGE
19.0
PRESSURE (hpa)
LOW
1010.5
HIGH
1015.1
AVERAGE
1013.2
DEVICE